Time;durP1;ratioP1;P1;durP2;ratioP2;P2;SDS_P1;SDS_P2;PMS_P1;PMS_P2;Temp;Humidity;BMP_temperature;BMP_pressure;BME280_temperature;BME280_humidity;BME280_pressure;Samples;Min_cycle;Max_cycle;Signal;HPM_P1;HPM_P2
2022/04/18 00:01:05;;;;;;;8.85;6.25;;;;;;;5.34;67.35;101675.38;5035523;28;20060;-87
2022/04/18 00:03:35;;;;;;;13.07;7.28;;;;;;;5.32;68.07;101678.03;5051816;28;20058;-87
2022/04/18 00:06:06;;;;;;;13.15;7.72;;;;;;;5.29;68.04;101672.88;5019151;28;20135;-87
2022/04/18 00:08:34;;;;;;;11.13;7.03;;;;;;;5.24;67.62;101668.63;5045265;28;20068;-89
2022/04/18 00:18:51;;;;;;;15.77;7.50;;;;;;;5.13;68.84;101658.38;5067791;28;20411;-81
2022/04/18 00:21:21;;;;;;;15.10;7.90;;;;;;;5.11;68.71;101659.34;5068372;28;20132;-84
2022/04/18 00:23:50;;;;;;;14.30;7.15;;;;;;;5.06;69.52;101660.28;5049861;28;20086;-86
2022/04/18 00:26:24;;;;;;;12.43;7.05;;;;;;;5.04;69.27;101654.25;5064251;28;20075;-86
2022/04/18 00:28:52;;;;;;;13.70;7.63;;;;;;;5.00;69.85;101649.97;5052824;28;20556;-87
2022/04/18 00:31:22;;;;;;;15.77;7.40;;;;;;;4.99;70.11;101656.06;5038282;28;20048;-82
2022/04/18 00:33:50;;;;;;;13.65;8.50;;;;;;;4.96;70.13;101644.84;5071127;28;20066;-85
2022/04/18 00:36:20;;;;;;;11.95;7.45;;;;;;;4.91;71.15;101646.66;5022491;28;20048;-83
2022/04/18 00:38:51;;;;;;;12.65;6.88;;;;;;;4.88;70.64;101642.38;5054269;28;20400;-84
2022/04/18 00:41:19;;;;;;;11.30;6.95;;;;;;;4.83;71.42;101639.84;5033810;28;20063;-83
2022/04/18 00:43:51;;;;;;;12.48;7.07;;;;;;;4.84;71.51;101640.69;5036771;28;20506;-88
2022/04/18 00:46:19;;;;;;;13.45;6.90;;;;;;;4.81;71.91;101635.53;5036800;28;20051;-84
2022/04/18 00:48:47;;;;;;;12.15;7.25;;;;;;;4.79;72.52;101637.31;5020086;28;20135;-82
2022/04/18 00:51:20;;;;;;;14.68;7.78;;;;;;;4.72;72.69;101628.75;5034029;28;20096;-84
2022/04/18 00:53:48;;;;;;;11.07;7.28;;;;;;;4.70;72.64;101633.13;5009581;28;20136;-84
2022/04/18 00:56:19;;;;;;;12.05;7.88;;;;;;;4.69;72.52;101620.13;5054504;28;20460;-85
2022/04/18 00:58:49;;;;;;;12.38;6.72;;;;;;;4.67;72.83;101625.34;5059782;28;20040;-85
2022/04/18 01:01:19;;;;;;;11.95;8.02;;;;;;;4.65;73.17;101624.53;5038333;28;20040;-87
2022/04/18 01:03:48;;;;;;;12.32;7.80;;;;;;;4.61;73.17;101625.47;5053968;28;20079;-83
2022/04/18 01:06:15;;;;;;;12.02;8.02;;;;;;;4.57;73.29;101622.06;5049032;28;20525;-83
2022/04/18 01:08:43;;;;;;;12.85;7.85;;;;;;;4.55;73.58;101620.38;5037810;28;20056;-87
2022/04/18 01:11:11;;;;;;;11.50;7.90;;;;;;;4.52;74.43;101618.69;5021920;28;20052;-86
2022/04/18 01:13:44;;;;;;;13.95;8.50;;;;;;;4.49;73.84;101621.34;5019446;28;20399;-83
2022/04/18 01:16:15;;;;;;;13.32;8.82;;;;;;;4.48;74.24;101611.81;5036675;28;20058;-87
2022/04/18 01:18:45;;;;;;;12.55;7.93;;;;;;;4.47;74.65;101607.47;5032407;28;20052;-86
2022/04/18 01:21:17;;;;;;;15.48;9.38;;;;;;;4.45;74.73;101601.41;5038430;28;20086;-85
2022/04/18 01:23:47;;;;;;;12.93;8.05;;;;;;;4.44;74.24;101609.28;5076577;28;20496;-84
2022/04/18 01:29:01;;;;;;;15.10;8.68;;;;;;;4.40;74.62;101600.63;5050991;28;20048;-82
2022/04/18 01:31:38;;;;;;;15.85;9.10;;;;;;;4.41;73.96;101598.88;5032974;28;20041;-82
2022/04/18 01:34:07;;;;;;;12.50;8.93;;;;;;;4.39;74.61;101598.06;5036387;28;20040;-87
2022/04/18 01:36:35;;;;;;;15.30;8.75;;;;;;;4.37;75.24;101598.13;5051746;28;20063;-84
2022/04/18 01:39:02;;;;;;;15.52;8.50;;;;;;;4.38;74.65;101593.75;5025644;28;20508;-82
2022/04/18 01:41:33;;;;;;;16.58;9.00;;;;;;;4.37;75.18;101602.44;5071621;28;20036;-85
2022/04/18 01:44:02;;;;;;;13.73;8.75;;;;;;;4.34;74.85;101592.94;5044540;28;20099;-86
2022/04/18 01:46:30;;;;;;;15.98;8.90;;;;;;;4.32;74.92;101589.47;5063601;28;20255;-85
2022/04/18 01:48:58;;;;;;;15.25;9.13;;;;;;;4.31;75.31;101583.41;5054438;28;20124;-81
2022/04/18 01:51:26;;;;;;;17.48;9.48;;;;;;;4.28;76.82;101580.03;5039609;28;20055;-83
2022/04/18 01:53:56;;;;;;;16.38;10.48;;;;;;;4.26;76.24;101581.78;5055048;28;20056;-88
2022/04/18 01:56:23;;;;;;;14.52;8.93;;;;;;;4.24;76.25;101576.59;5019063;28;20041;-83
2022/04/18 01:58:50;;;;;;;16.75;9.57;;;;;;;4.25;76.81;101570.50;5035498;28;20047;-85
2022/04/18 02:01:19;;;;;;;16.33;9.15;;;;;;;4.22;76.59;101578.38;5055234;28;20047;-85
2022/04/18 02:03:48;;;;;;;15.63;9.70;;;;;;;4.21;77.17;101568.84;5035406;28;20045;-86
2022/04/18 02:06:16;;;;;;;15.75;9.82;;;;;;;4.19;77.56;101567.16;5036224;28;20132;-85
2022/04/18 02:08:43;;;;;;;16.80;10.60;;;;;;;4.17;77.89;101563.69;5049452;28;20067;-84
2022/04/18 02:11:10;;;;;;;16.98;9.57;;;;;;;4.16;78.41;101572.41;5034228;28;20409;-87
2022/04/18 02:13:38;;;;;;;15.80;10.63;;;;;;;4.14;78.46;101568.97;5067313;28;20053;-85
2022/04/18 02:16:06;;;;;;;15.68;10.50;;;;;;;4.12;79.22;101568.13;5051031;28;20072;-81
2022/04/18 02:18:33;;;;;;;16.02;10.65;;;;;;;4.09;78.67;101555.16;5018934;28;20052;-86
2022/04/18 02:21:00;;;;;;;20.63;9.88;;;;;;;4.09;78.68;101565.56;5032738;28;20071;-85
2022/04/18 02:23:28;;;;;;;17.00;10.68;;;;;;;4.04;79.61;101557.84;5035500;28;20127;-88
2022/04/18 02:25:55;;;;;;;18.77;9.88;;;;;;;4.01;80.03;101563.13;5032942;28;20045;-85
2022/04/18 02:28:22;;;;;;;18.42;10.00;;;;;;;3.99;80.69;101560.53;5038596;28;20064;-85
2022/04/18 02:30:49;;;;;;;16.90;10.13;;;;;;;3.96;80.32;101560.59;5050877;28;20056;-84
2022/04/18 02:33:17;;;;;;;13.95;9.25;;;;;;;3.92;80.74;101552.84;5037674;28;20067;-85
2022/04/18 02:35:44;;;;;;;16.80;9.52;;;;;;;3.91;80.93;101564.13;5048492;28;20195;-84
2022/04/18 02:38:13;;;;;;;15.90;9.80;;;;;;;3.91;81.07;101551.97;5023166;28;20139;-84
2022/04/18 02:40:41;;;;;;;16.13;9.88;;;;;;;3.92;80.79;101550.25;5047671;28;20063;-85
2022/04/18 02:43:09;;;;;;;17.83;10.77;;;;;;;3.88;81.10;101546.81;5036613;28;20067;-82
2022/04/18 02:45:37;;;;;;;17.73;10.05;;;;;;;3.85;81.60;101549.47;5036057;28;20116;-88
2022/04/18 02:48:05;;;;;;;15.35;10.23;;;;;;;3.79;81.77;101555.66;5053169;28;20041;-84
2022/04/18 02:50:32;;;;;;;15.73;9.52;;;;;;;3.76;82.46;101545.28;5031593;28;20136;-86
2022/04/18 02:53:00;;;;;;;16.58;10.23;;;;;;;3.73;82.14;101545.31;5053774;28;20040;-86
2022/04/18 02:55:28;;;;;;;14.82;9.52;;;;;;;3.73;82.38;101547.06;5029235;28;20117;-87
2022/04/18 02:57:55;;;;;;;18.33;9.68;;;;;;;3.74;83.05;101548.81;5027088;28;20115;-87
2022/04/18 03:00:22;;;;;;;14.75;9.63;;;;;;;3.67;83.44;101540.22;5051146;28;20059;-86
2022/04/18 03:02:49;;;;;;;20.08;10.38;;;;;;;3.65;84.17;101542.00;5051599;28;20048;-85
2022/04/18 03:05:19;;;;;;;16.98;9.40;;;;;;;3.62;83.81;101539.44;5018180;28;20059;-84
2022/04/18 03:07:46;;;;;;;13.48;8.85;;;;;;;3.60;84.30;101548.13;5045092;28;20044;-85
2022/04/18 03:10:13;;;;;;;15.15;9.85;;;;;;;3.55;84.66;101543.84;5017145;28;20055;-81
2022/04/18 03:12:41;;;;;;;13.70;8.50;;;;;;;3.51;84.78;101539.59;5053126;28;20112;-81
2022/04/18 03:15:08;;;;;;;15.13;9.18;;;;;;;3.49;85.22;101535.28;5036320;28;20047;-80
2022/04/18 03:17:36;;;;;;;17.88;10.18;;;;;;;3.47;85.37;101531.88;5030941;28;20052;-81
2022/04/18 03:20:05;;;;;;;13.25;8.63;;;;;;;3.45;85.11;101526.66;5065313;28;20195;-84
2022/04/18 03:22:33;;;;;;;14.77;9.20;;;;;;;3.45;85.17;101524.06;5013724;28;20093;-87
2022/04/18 03:25:01;;;;;;;17.45;9.32;;;;;;;3.44;85.20;101524.09;5029986;28;20885;-86
2022/04/18 03:27:28;;;;;;;13.75;9.05;;;;;;;3.41;84.90;101530.19;5048217;28;20105;-83
2022/04/18 03:29:55;;;;;;;15.20;9.75;;;;;;;3.39;85.48;101521.56;5016261;28;20044;-84
2022/04/18 03:32:25;;;;;;;13.00;8.65;;;;;;;3.38;85.60;101519.84;5034102;28;20126;-84
2022/04/18 03:34:54;;;;;;;12.68;9.35;;;;;;;3.32;85.82;101512.09;5033891;28;20062;-86
2022/04/18 03:40:16;;;;;;;13.82;9.10;;;;;;;3.28;85.89;101513.03;5050942;28;20033;-85
2022/04/18 03:42:44;;;;;;;14.60;8.80;;;;;;;3.30;86.31;101519.09;5057384;28;20067;-84
2022/04/18 03:45:11;;;;;;;16.92;9.52;;;;;;;3.28;86.28;101513.03;5060425;28;20052;-84
2022/04/18 03:47:38;;;;;;;16.08;9.63;;;;;;;3.22;86.87;101513.97;5055655;28;20058;-85
2022/04/18 03:50:07;;;;;;;15.27;8.60;;;;;;;3.22;86.57;101507.94;5059516;28;20116;-81
2022/04/18 03:52:34;;;;;;;14.65;9.95;;;;;;;3.19;86.99;101510.56;5034817;28;20044;-82
2022/04/18 03:55:06;;;;;;;14.93;9.43;;;;;;;3.16;86.87;101510.63;5050685;28;20079;-85
2022/04/18 03:57:33;;;;;;;15.15;9.77;;;;;;;3.16;86.97;101506.28;5049859;28;20064;-85
2022/04/18 04:00:00;;;;;;;15.00;9.38;;;;;;;3.18;86.87;101512.31;5046178;28;20128;-78
2022/04/18 04:02:29;;;;;;;14.90;9.40;;;;;;;3.18;86.63;101506.25;5035848;28;20081;-81
2022/04/18 04:04:56;;;;;;;14.82;9.55;;;;;;;3.13;86.85;101508.06;5072314;28;20036;-79
2022/04/18 04:07:24;;;;;;;17.73;10.52;;;;;;;3.10;87.30;101511.53;5054831;28;20480;-82
2022/04/18 04:09:53;;;;;;;18.13;9.65;;;;;;;3.08;87.30;101513.31;5067231;28;20096;-84
2022/04/18 04:12:30;;;;;;;18.77;10.15;;;;;;;3.05;87.25;101513.34;5049925;28;20112;-84
2022/04/18 04:15:00;;;;;;;16.75;9.75;;;;;;;3.07;86.86;101518.56;5068388;28;20060;-83
2022/04/18 04:17:28;;;;;;;18.40;9.15;;;;;;;3.08;86.90;101515.94;5056146;28;20048;-84
2022/04/18 04:20:17;;;;;;;19.52;9.93;;;;;;;3.12;86.86;101514.16;5045901;28;20044;-85
2022/04/18 04:22:45;;;;;;;17.45;9.68;;;;;;;3.10;86.99;101513.28;5039200;28;20056;-85
2022/04/18 04:25:12;;;;;;;17.33;9.75;;;;;;;3.11;86.29;101513.28;5053318;28;20049;-83
2022/04/18 04:27:40;;;;;;;17.20;9.95;;;;;;;3.10;86.60;101510.69;5071625;28;20059;-84
2022/04/18 04:30:08;;;;;;;20.02;9.60;;;;;;;3.12;86.38;101511.53;5048591;28;20096;-82
2022/04/18 04:32:45;;;;;;;20.15;10.15;;;;;;;3.10;86.38;101515.91;5063700;28;20044;-86
2022/04/18 04:35:13;;;;;;;14.45;8.50;;;;;;;3.08;86.13;101507.25;5066591;28;20042;-85
2022/04/18 04:37:41;;;;;;;16.25;9.80;;;;;;;3.08;86.25;101507.25;5072428;28;20108;-84
2022/04/18 04:40:11;;;;;;;18.23;10.80;;;;;;;3.09;86.40;101503.78;5072030;28;20036;-83
2022/04/18 04:42:38;;;;;;;16.42;10.35;;;;;;;3.08;86.30;101491.66;5055511;28;20033;-85
2022/04/18 04:45:06;;;;;;;20.60;10.55;;;;;;;3.14;85.85;101494.16;5042274;28;20056;-84
2022/04/18 04:47:33;;;;;;;17.67;10.30;;;;;;;3.17;86.11;101494.97;5075312;28;20095;-83
2022/04/18 04:50:01;;;;;;;16.65;9.70;;;;;;;3.18;85.54;101491.50;5073322;28;20144;-85
2022/04/18 04:52:28;;;;;;;19.85;10.43;;;;;;;3.22;85.61;101494.91;5060693;28;20048;-85
2022/04/18 04:54:56;;;;;;;19.90;10.07;;;;;;;3.25;85.26;101487.06;5063904;28;20044;-85
2022/04/18 04:57:24;;;;;;;18.25;10.77;;;;;;;3.32;84.80;101488.69;5048938;28;20060;-83
2022/04/18 04:59:51;;;;;;;19.45;10.35;;;;;;;3.36;84.66;101485.16;5046671;28;20044;-85
2022/04/18 05:02:20;;;;;;;21.88;10.75;;;;;;;3.36;84.54;101487.75;5035140;28;20040;-86
2022/04/18 05:04:49;;;;;;;17.10;10.65;;;;;;;3.41;83.89;101483.34;5035736;28;20180;-85
2022/04/18 05:07:17;;;;;;;19.25;11.05;;;;;;;3.47;83.94;101495.41;5047911;28;20055;-85
2022/04/18 05:09:44;;;;;;;21.58;10.75;;;;;;;3.51;83.33;101487.53;5037169;28;20079;-84
2022/04/18 05:12:11;;;;;;;18.80;11.25;;;;;;;3.59;82.90;101486.53;5036047;28;20048;-82
2022/04/18 05:14:39;;;;;;;20.75;10.93;;;;;;;3.64;83.22;101485.56;5035695;28;20511;-81
2022/04/18 05:17:09;;;;;;;14.90;9.93;;;;;;;3.73;82.82;101487.16;5030737;28;20062;-85
2022/04/18 05:19:36;;;;;;;18.40;10.38;;;;;;;3.82;82.20;101484.41;5060278;28;20172;-86
2022/04/18 05:22:04;;;;;;;18.38;10.80;;;;;;;3.87;81.36;101485.16;5051120;28;20059;-86
2022/04/18 05:24:31;;;;;;;16.40;10.23;;;;;;;3.91;81.32;101488.59;5084190;28;20410;-82
2022/04/18 05:26:58;;;;;;;18.10;10.15;;;;;;;3.99;81.36;101484.97;5056012;28;20086;-86
2022/04/18 05:29:26;;;;;;;22.15;10.70;;;;;;;4.03;81.06;101480.56;5028008;28;20048;-84
2022/04/18 05:31:54;;;;;;;20.00;10.98;;;;;;;4.07;81.07;101477.88;5043156;28;20522;-80
2022/04/18 05:34:21;;;;;;;19.63;10.93;;;;;;;4.18;80.92;101485.47;5053476;28;20055;-80
2022/04/18 05:36:52;;;;;;;23.98;12.20;;;;;;;4.30;80.08;101480.03;5066667;28;20044;-85
2022/04/18 05:39:21;;;;;;;18.73;10.73;;;;;;;4.41;79.90;101490.25;5035084;28;20049;-81
2022/04/18 05:41:49;;;;;;;25.02;11.45;;;;;;;4.52;79.23;101484.84;5035368;28;20052;-83
2022/04/18 05:44:19;;;;;;;24.45;11.00;;;;;;;4.57;78.93;101486.47;5067068;28;20211;-86
2022/04/18 05:46:48;;;;;;;22.98;11.18;;;;;;;4.65;78.72;101485.47;5036049;28;20037;-85
2022/04/18 05:49:17;;;;;;;19.58;11.35;;;;;;;4.82;76.92;101491.19;5034614;28;20052;-82
2022/04/18 05:51:44;;;;;;;19.45;10.45;;;;;;;4.92;77.40;101492.69;5032501;28;20056;-86
2022/04/18 05:54:14;;;;;;;19.90;11.27;;;;;;;5.02;77.14;101488.13;5034998;28;20044;-87
2022/04/18 05:56:41;;;;;;;19.27;11.18;;;;;;;5.16;76.16;101491.28;5049937;28;20529;-85
2022/04/18 05:59:59;;;;;;;19.20;10.60;;;;;;;5.27;75.90;101501.50;5034385;28;20056;-85
2022/04/18 06:02:36;;;;;;;;;;;;;;;;;;;;;
2022/04/18 06:05:22;;;;;;;25.48;11.68;;;;;;;5.60;74.52;101497.22;5051118;28;20118;-86
2022/04/18 06:07:52;;;;;;;21.33;11.63;;;;;;;5.70;73.27;101496.09;5034800;28;20069;-85
2022/04/18 06:10:20;;;;;;;22.25;11.52;;;;;;;5.81;72.48;101501.06;5051236;28;20052;-87
2022/04/18 06:12:47;;;;;;;21.60;11.65;;;;;;;5.90;72.29;101498.22;5049359;28;20376;-83
2022/04/18 06:15:15;;;;;;;23.50;12.05;;;;;;;6.04;72.24;101503.13;5047693;28;20033;-83
2022/04/18 06:17:43;;;;;;;20.55;11.90;;;;;;;6.16;71.78;101502.78;5035046;28;20044;-82
2022/04/18 06:20:11;;;;;;;22.13;11.88;;;;;;;6.25;72.01;101496.44;5034871;28;20071;-86
2022/04/18 06:22:38;;;;;;;21.00;12.25;;;;;;;6.39;71.35;101496.06;5035758;28;20043;-86
2022/04/18 06:25:32;;;;;;;21.42;12.00;;;;;;;6.47;70.98;101496.72;5035368;28;20124;-88
2022/04/18 06:28:00;;;;;;;20.20;11.23;;;;;;;6.57;70.15;101493.81;5027965;28;20079;-87
2022/04/18 06:30:27;;;;;;;16.83;10.10;;;;;;;6.70;69.96;101499.53;5049989;28;20048;-88
2022/04/18 06:32:55;;;;;;;22.48;11.95;;;;;;;6.77;69.74;101495.84;5034873;28;20111;-84
2022/04/18 06:35:23;;;;;;;20.17;10.43;;;;;;;6.88;69.44;101487.69;5052647;28;20112;-87
2022/04/18 06:37:53;;;;;;;18.30;11.13;;;;;;;6.97;68.69;101484.78;5029374;28;20517;-83
2022/04/18 06:40:21;;;;;;;21.25;10.93;;;;;;;7.15;68.16;101483.34;5035363;28;20056;-87
2022/04/18 06:42:50;;;;;;;17.33;10.98;;;;;;;7.28;67.82;101492.56;5042639;28;20491;-81
2022/04/18 06:45:17;;;;;;;22.35;10.63;;;;;;;7.35;67.05;101494.09;5054226;28;20060;-87
2022/04/18 06:47:45;;;;;;;20.45;11.07;;;;;;;7.49;66.31;101493.66;5053363;28;20414;-85
2022/04/18 06:50:12;;;;;;;19.38;8.95;;;;;;;7.64;66.81;101488.81;5036673;28;20044;-86
2022/04/18 06:52:44;;;;;;;18.38;9.85;;;;;;;7.83;65.61;101474.16;5036972;28;20036;-85
2022/04/18 06:55:13;;;;;;;18.55;9.95;;;;;;;8.19;65.09;101481.69;5068076;28;20531;-84
2022/04/18 06:57:43;;;;;;;20.67;10.25;;;;;;;8.30;64.13;101477.78;5058063;28;20085;-84
2022/04/18 07:00:11;;;;;;;14.85;8.43;;;;;;;8.54;63.76;101478.66;5044190;28;20441;-84
2022/04/18 07:02:50;;;;;;;15.68;9.18;;;;;;;8.68;63.04;101478.16;5057029;28;20082;-86
2022/04/18 07:05:17;;;;;;;15.77;8.77;;;;;;;8.72;63.17;101482.38;5054341;28;20108;-84
2022/04/18 07:07:44;;;;;;;14.50;7.47;;;;;;;8.87;62.07;101484.44;5045498;28;20070;-85
2022/04/18 07:10:12;;;;;;;13.05;8.45;;;;;;;8.98;61.02;101476.16;5040476;28;20361;-80
2022/04/18 07:12:39;;;;;;;12.27;7.90;;;;;;;9.07;60.67;101472.31;5070820;28;20105;-84
2022/04/18 07:15:08;;;;;;;14.10;8.20;;;;;;;9.15;60.49;101475.50;5027929;28;20041;-84
2022/04/18 07:17:46;;;;;;;14.45;8.07;;;;;;;9.22;60.53;101474.31;5058173;28;20078;-81
2022/04/18 07:20:15;;;;;;;14.40;7.55;;;;;;;9.27;59.76;101477.63;5061797;28;20071;-84
2022/04/18 07:22:43;;;;;;;13.55;7.82;;;;;;;9.42;59.19;101473.53;5048727;28;20051;-84
2022/04/18 07:25:10;;;;;;;14.05;7.30;;;;;;;9.54;58.50;101473.00;5051349;28;20025;-86
2022/04/18 07:27:40;;;;;;;12.25;7.88;;;;;;;9.73;58.23;101472.28;5067209;28;20040;-84
2022/04/18 07:30:16;;;;;;;12.15;7.47;;;;;;;9.83;57.68;101471.81;5066591;28;20112;-81
2022/04/18 07:32:45;;;;;;;10.55;7.18;;;;;;;9.91;57.45;101471.50;5051194;28;20053;-80
2022/04/18 07:35:13;;;;;;;14.73;8.25;;;;;;;9.98;57.55;101466.81;5069033;28;20086;-81
2022/04/18 07:40:53;;;;;;;15.13;7.88;;;;;;;10.23;56.13;101467.47;5057095;28;20338;-82
2022/04/18 07:43:21;;;;;;;13.77;8.25;;;;;;;10.22;55.78;101460.50;5044103;28;20048;-83
2022/04/18 07:45:49;;;;;;;12.63;7.95;;;;;;;10.28;55.63;101457.63;5031498;28;20082;-85
2022/04/18 07:48:16;;;;;;;12.60;8.95;;;;;;;10.34;55.39;101465.25;5023160;28;20050;-85
2022/04/18 07:53:34;;;;;;;12.52;8.02;;;;;;;10.63;54.69;101471.00;5043445;28;20063;-86
2022/04/18 07:56:02;;;;;;;14.80;8.15;;;;;;;10.73;54.31;101467.00;5055432;28;20104;-85
2022/04/18 07:58:32;;;;;;;11.18;7.57;;;;;;;10.73;53.78;101471.41;5045029;28;20032;-83
2022/04/18 08:01:18;;;;;;;15.60;7.93;;;;;;;10.92;53.75;101459.09;5062215;28;20087;-82
2022/04/18 08:03:50;;;;;;;14.32;7.35;;;;;;;11.03;52.84;101453.31;5072036;28;20080;-86
2022/04/18 08:06:18;;;;;;;14.35;7.50;;;;;;;11.18;52.44;101457.00;5035480;28;20111;-87
2022/04/18 08:08:48;;;;;;;12.38;6.38;;;;;;;11.32;52.28;101465.09;5033049;28;20116;-83
2022/04/18 08:11:16;;;;;;;10.48;6.22;;;;;;;11.47;52.29;101466.97;5018066;28;20468;-85
2022/04/18 08:13:45;;;;;;;10.02;5.78;;;;;;;11.57;50.84;101457.69;5048115;28;20131;-88
2022/04/18 08:16:14;;;;;;;13.32;6.97;;;;;;;11.72;50.00;101449.94;5048341;28;20124;-85
2022/04/18 08:18:44;;;;;;;11.95;5.90;;;;;;;11.73;49.89;101449.84;5047680;28;20057;-86
2022/04/18 08:21:15;;;;;;;10.95;6.78;;;;;;;11.73;49.67;101449.00;5033950;28;20295;-83
2022/04/18 08:23:50;;;;;;;8.80;5.82;;;;;;;11.78;49.14;101449.63;5026902;28;20076;-83
2022/04/18 08:26:19;;;;;;;10.13;5.85;;;;;;;11.84;49.17;101444.94;5039067;28;20049;-85
2022/04/18 08:28:47;;;;;;;7.35;5.20;;;;;;;12.01;49.08;101449.31;5046641;28;20041;-87
2022/04/18 08:31:14;;;;;;;7.60;4.20;;;;;;;12.12;47.04;101449.63;5032083;28;20323;-87
2022/04/18 08:33:44;;;;;;;6.07;4.38;;;;;;;12.24;46.22;101439.34;5021150;28;20679;-84
2022/04/18 08:36:11;;;;;;;5.75;3.30;;;;;;;12.42;45.73;101444.50;5016900;28;20544;-79
2022/04/18 08:38:40;;;;;;;6.32;2.85;;;;;;;12.72;45.56;101435.03;5065460;28;20072;-86
2022/04/18 08:41:13;;;;;;;6.05;3.10;;;;;;;12.80;44.43;101435.44;5035441;28;20471;-84
2022/04/18 08:43:41;;;;;;;6.78;3.58;;;;;;;12.72;43.98;101435.88;5027566;28;20049;-88
2022/04/18 08:46:09;;;;;;;4.75;2.90;;;;;;;12.85;43.58;101430.75;5032996;28;20124;-86
2022/04/18 08:54:09;;;;;;;5.10;3.33;;;;;;;13.29;43.95;101430.09;5049404;28;20498;-87
2022/04/18 08:56:36;;;;;;;6.80;3.53;;;;;;;13.35;43.69;101427.06;5034107;28;20071;-86
2022/04/18 08:59:04;;;;;;;6.43;3.40;;;;;;;13.53;42.99;101431.28;5033531;28;20042;-85
2022/04/18 09:01:31;;;;;;;6.47;4.18;;;;;;;13.49;43.49;101427.13;5020084;28;20055;-86
2022/04/18 09:03:59;;;;;;;8.15;4.57;;;;;;;13.34;44.29;101420.09;5038812;28;20110;-87
2022/04/18 09:06:29;;;;;;;7.18;4.28;;;;;;;13.52;43.49;101419.00;5040885;28;20169;-83
2022/04/18 09:08:58;;;;;;;6.80;3.88;;;;;;;13.64;43.45;101417.44;5026405;28;20048;-85
2022/04/18 09:11:40;;;;;;;9.23;4.03;;;;;;;13.91;43.14;101412.28;5025490;28;20051;-84
2022/04/18 09:14:09;;;;;;;7.10;3.30;;;;;;;13.67;41.73;101404.03;5053745;28;20048;-85
2022/04/18 09:16:39;;;;;;;5.75;3.58;;;;;;;13.75;42.34;101399.13;5021242;28;20127;-84
2022/04/18 09:19:11;;;;;;;6.28;4.32;;;;;;;13.85;42.01;101396.78;5020190;28;20056;-86
2022/04/18 09:21:59;;;;;;;9.35;4.50;;;;;;;14.16;42.60;101398.41;5033167;28;20045;-86
2022/04/18 09:24:34;;;;;;;6.70;3.60;;;;;;;14.49;42.82;101392.84;5052164;28;20052;-84
2022/04/18 09:27:12;;;;;;;;;;;;;;;14.65;41.68;101395.38;5020862;28;20073;-86
2022/04/18 09:29:40;;;;;;;9.20;3.92;;;;;;;14.62;41.58;101393.75;5019193;28;19924;-87
2022/04/18 09:32:12;;;;;;;8.05;4.15;;;;;;;14.85;41.60;101391.44;5019373;28;20399;-86
2022/04/18 09:34:40;;;;;;;6.45;3.28;;;;;;;14.83;40.82;101383.59;5015356;28;20132;-85
2022/04/18 09:37:15;;;;;;;5.70;3.50;;;;;;;14.87;40.23;101387.75;5051590;28;20066;-87
2022/04/18 09:39:44;;;;;;;6.75;3.75;;;;;;;14.98;40.94;101379.09;5012540;28;20052;-87
2022/04/18 09:42:14;;;;;;;4.85;3.30;;;;;;;15.13;40.99;101374.56;5036915;28;20044;-87
2022/04/18 09:44:43;;;;;;;5.93;3.75;;;;;;;15.10;40.17;101370.34;5036627;28;20093;-86
2022/04/18 09:47:22;;;;;;;5.20;3.50;;;;;;;15.06;39.92;101371.47;5030515;28;20487;-86
2022/04/18 09:49:50;;;;;;;5.07;3.80;;;;;;;15.10;39.72;101365.03;5050289;28;20051;-84
2022/04/18 09:52:18;;;;;;;4.82;3.58;;;;;;;15.11;38.35;101363.22;5020415;28;20074;-85
2022/04/18 09:54:56;;;;;;;4.47;3.00;;;;;;;15.26;38.60;101356.03;5051262;28;20052;-85
2022/04/18 09:57:27;;;;;;;6.90;3.13;;;;;;;15.32;37.40;101358.31;5032924;28;20055;-86
2022/04/18 09:59:56;;;;;;;4.90;2.28;;;;;;;15.30;36.47;101353.06;5066898;28;20052;-85
2022/04/18 10:02:49;;;;;;;3.90;2.40;;;;;;;15.41;37.17;101355.03;5031363;28;20041;-84
2022/04/18 10:05:17;;;;;;;3.88;2.35;;;;;;;15.53;37.53;101348.88;5034430;28;20050;-86
2022/04/18 10:07:47;;;;;;;7.13;2.80;;;;;;;15.70;37.48;101353.91;5020171;28;20124;-86
2022/04/18 10:10:15;;;;;;;4.15;2.15;;;;;;;15.77;36.92;101343.72;5035369;28;20052;-87
2022/04/18 10:12:42;;;;;;;5.00;2.90;;;;;;;15.96;37.83;101343.28;5033608;28;20057;-86
2022/04/18 10:15:11;;;;;;;3.72;2.30;;;;;;;16.04;37.46;101334.78;5033159;28;20054;-85
2022/04/18 10:17:38;;;;;;;5.13;2.38;;;;;;;16.07;35.96;101345.19;5003640;28;20044;-86
2022/04/18 10:20:28;;;;;;;3.70;2.00;;;;;;;16.09;36.47;101336.16;5034219;28;20055;-80
2022/04/18 10:23:15;;;;;;;4.30;2.25;;;;;;;16.30;36.03;101333.78;5034886;28;20049;-83
2022/04/18 10:26:09;;;;;;;4.07;1.65;;;;;;;16.39;34.76;101330.47;5028833;28;20049;-86
2022/04/18 10:28:40;;;;;;;7.20;2.80;;;;;;;16.21;35.47;101331.78;5039542;28;20067;-84
2022/04/18 10:31:10;;;;;;;5.35;2.80;;;;;;;16.07;35.18;101332.75;5034017;28;20126;-85
2022/04/18 10:33:37;;;;;;;3.92;2.20;;;;;;;16.07;36.05;101322.13;5052309;28;20040;-87
2022/04/18 10:36:07;;;;;;;4.47;1.80;;;;;;;16.17;34.66;101323.19;5035192;28;20053;-86
2022/04/18 10:38:40;;;;;;;3.20;1.48;;;;;;;16.27;34.56;101318.06;5017470;28;20052;-86
2022/04/18 10:41:43;;;;;;;3.17;1.88;;;;;;;16.56;35.13;101323.91;5033767;28;20052;-81
2022/04/18 10:44:18;;;;;;;3.80;1.20;;;;;;;16.81;33.42;101322.16;5046118;28;20128;-84
2022/04/18 10:46:52;;;;;;;3.88;1.60;;;;;;;16.99;33.87;101315.47;5065458;28;20494;-87
2022/04/18 10:49:31;;;;;;;4.97;1.20;;;;;;;17.07;33.57;101313.09;5046726;28;20134;-85
2022/04/18 10:52:11;;;;;;;2.90;1.40;;;;;;;17.14;32.32;101316.13;5035426;28;20123;-87
2022/04/18 10:54:38;;;;;;;2.10;1.08;;;;;;;17.19;33.15;101311.28;5046183;28;20139;-84
2022/04/18 10:57:11;;;;;;;3.08;1.60;;;;;;;17.43;32.75;101311.25;5033401;28;20046;-87
2022/04/18 10:59:45;;;;;;;4.07;1.77;;;;;;;17.66;32.91;101312.97;5050444;28;20387;-85
2022/04/18 11:02:36;;;;;;;2.55;1.50;;;;;;;17.64;33.33;101306.91;5051006;28;20060;-84
2022/04/18 11:05:04;;;;;;;2.97;1.50;;;;;;;17.48;32.65;101298.44;5059523;28;20064;-84
2022/04/18 11:07:38;;;;;;;2.78;1.50;;;;;;;17.45;31.52;101301.31;5032884;28;20383;-87
2022/04/18 11:10:19;;;;;;;4.20;1.35;;;;;;;17.78;32.09;101291.69;5028444;28;20044;-88
2022/04/18 11:12:46;;;;;;;2.88;1.52;;;;;;;17.78;32.72;101291.69;5031838;28;20499;-88
2022/04/18 11:15:17;;;;;;;6.28;1.98;;;;;;;17.75;31.20;101291.97;5031937;28;20044;-85
2022/04/18 11:17:46;;;;;;;2.22;1.60;;;;;;;18.05;32.31;101286.84;5066142;28;20128;-86
2022/04/18 11:20:33;;;;;;;2.63;1.50;;;;;;;18.32;32.90;101293.59;5049842;28;20462;-85
2022/04/18 11:23:19;;;;;;;3.85;1.90;;;;;;;18.52;31.79;101284.00;5033969;28;20063;-84
2022/04/18 11:25:54;;;;;;;2.05;1.23;;;;;;;18.69;31.56;101272.81;5063833;28;20079;-82
2022/04/18 11:28:23;;;;;;;2.78;1.75;;;;;;;18.56;30.89;101283.63;5048721;28;20045;-85
2022/04/18 11:30:51;;;;;;;4.63;1.58;;;;;;;18.30;30.33;101276.91;5030973;28;20055;-87
2022/04/18 11:33:19;;;;;;;3.47;1.75;;;;;;;18.46;31.94;101272.00;5030974;28;20036;-86
2022/04/18 11:35:47;;;;;;;2.38;1.33;;;;;;;18.84;30.92;101270.69;5030143;28;20110;-85
2022/04/18 11:38:17;;;;;;;2.75;2.17;;;;;;;17.58;30.61;101266.63;5012544;28;20057;-83
2022/04/18 11:40:45;;;;;;;3.72;1.90;;;;;;;17.60;31.75;101259.34;5046834;28;20049;-84
2022/04/18 11:43:13;;;;;;;3.72;1.70;;;;;;;18.08;32.57;101261.78;5033589;28;20040;-85
2022/04/18 11:45:41;;;;;;;6.70;2.63;;;;;;;18.38;31.84;101266.47;5030996;28;20064;-86
2022/04/18 11:48:12;;;;;;;3.58;1.90;;;;;;;18.74;30.96;101261.78;5019511;28;20071;-85
2022/04/18 11:50:42;;;;;;;5.38;1.80;;;;;;;19.08;31.58;101257.94;5032925;28;20036;-87
2022/04/18 11:53:14;;;;;;;3.40;1.90;;;;;;;19.34;30.45;101252.22;5035852;28;20051;-85
2022/04/18 11:55:43;;;;;;;4.25;2.03;;;;;;;19.57;30.13;101251.06;5014971;28;20149;-88
2022/04/18 11:58:11;;;;;;;2.75;2.05;;;;;;;19.92;30.86;101247.19;5036205;28;20116;-88
2022/04/18 12:09:12;;;;;;;5.38;1.95;;;;;;;20.50;28.66;101228.59;5028800;28;20048;-86
2022/04/18 12:11:43;;;;;;;2.30;1.65;;;;;;;20.95;28.44;101228.88;5034024;28;20071;-87